Flight Track Log - Related Links

Times and Time Zones

All times are in EDT time to prevent confusion due to time zone crossing. See the N531QS flight status page for this flight to view local times or setup timezone preferences in your user account.


Time Position Orientation Groundspeed Altitude Reporting Facility
EDT Latitude Longitude Course Direction KTS MPH feet Rate Location/Type
Tue 06:13:54 PM 40.8167 -74.1333 323° Northwest 182 209 5,700  Level New York TRACON
Tue 06:14:48 PM 40.8167 -74.2000 270° West 227 261 3,200 -150 Descending New York TRACON
Tue 06:15:54 PM 40.8333 -74.3000 282° West 250 288 5,400 3,190 Climbing New York TRACON
Tue 06:16:54 PM 40.8833 -74.3500 323° Northwest 251 289 9,900 3,632 Climbing New York TRACON
Tue 06:17:48 PM 40.9333 -74.4167 315° West 301 346 12,300 2,250 Climbing New York TRACON
Tue 06:18:54 PM 41.0167 -74.5167 318° Northwest 368 423 14,400 1,613 Climbing New York TRACON
Tue 06:19:00 PM 41.1668 -74.7834 323° Northwest  Level FlightAware Approximate
Tue 06:20:28 PM 41.1200 -74.6739 311° West 382 440 16,600  Level New York Center
Tue 06:21:28 PM 41.1708 -74.7733 304° West 361 415 19,000 2,420 Climbing New York Center
Tue 06:22:27 PM 41.2253 -74.8894 302° West 366 421 21,400 2,319 Climbing New York Center
Tue 06:23:27 PM 41.2731 -75.0083 298° West 381 438 23,600 1,770 Climbing New York Center
Tue 06:24:29 PM 41.3422 -75.1703 300° West 411 473 25,000 700 Climbing New York Center
Tue 06:25:27 PM 41.4053 -75.3153 300° West 430 495 25,000 50 Level New York Center
Tue 06:26:28 PM 41.4644 -75.4578 299° West 442 509 25,100 1,033 Climbing New York Center
Tue 06:27:29 PM 41.5125 -75.6081 293° West 442 509 27,100 2,269 Climbing New York Center
Tue 06:28:27 PM 41.5597 -75.7722 291° West 455 524 29,600 1,462 Climbing New York Center
Tue 06:29:28 PM 41.6050 -75.9308 291° West 460 529 30,000 200 Climbing New York Center
Tue 06:30:27 PM 41.6500 -76.0900 291° West 460 529 30,000  Level New York Center
Tue 06:31:28 PM 41.6914 -76.2347 291° West 460 529 30,000  Level New York Center
Tue 06:32:29 PM 41.7361 -76.3942 291° West 460 529 30,000 843 Level New York Center
Tue 06:33:29 PM 41.7819 -76.5678 290° West 455 524 31,700 1,525 Climbing New York Center
Tue 06:34:27 PM 41.8261 -76.7247 291° West 455 524 33,000 655 Climbing New York Center
Tue 06:35:28 PM 41.8683 -76.8817 290° West 455 524 33,000  Level New York Center
Tue 06:36:27 PM 41.9378 -77.0275 303° West 455 524 33,000  Level New York Center
Tue 06:36:59 PM 41.9844 -77.0994 311° West 457 526 33,000  Level Cleveland Center
Tue 06:37:59 PM 42.0628 -77.2156 312° West 476 548 33,000 450 Level Cleveland Center
Tue 06:38:59 PM 42.1522 -77.3481 312° West 476 548 33,900 500 Climbing Cleveland Center
Tue 06:39:59 PM 42.2392 -77.4783 312° West 476 548 34,000 50 Climbing Cleveland Center
Tue 06:40:59 PM 42.2992 -77.6242 299° West 464 534 34,000  Level Cleveland Center
Tue 06:41:59 PM 42.3261 -77.7803 283° West 429 494 34,000  Level Cleveland Center
Tue 06:42:59 PM 42.3425 -77.9453 278° West 434 499 34,000  Level Cleveland Center
Tue 06:43:59 PM 42.3628 -78.1075 280° West 442 509 34,000  Level Cleveland Center
Tue 06:44:59 PM 42.3831 -78.2808 279° West 458 527 34,000  Level Cleveland Center
Tue 06:45:59 PM 42.4444 -78.4419 297° West 465 535 34,000  Level Cleveland Center
Tue 06:46:59 PM 42.5225 -78.6111 302° West 470 541 34,000  Level Cleveland Center
Tue 06:47:59 PM 42.5958 -78.7639 303° West 476 548 34,000  Level Cleveland Center
Tue 06:48:59 PM 42.6650 -78.9144 302° West 483 556 34,000  Level Cleveland Center
Tue 06:49:59 PM 42.7275 -79.0767 298° West 484 557 34,000  Level Cleveland Center
Tue 06:50:59 PM 42.7361 -79.2489 274° West 463 533 34,000  Level Cleveland Center
Tue 06:51:59 PM 42.6939 -79.4164 251° West 446 513 34,000  Level Cleveland Center
Tue 06:52:59 PM 42.6478 -79.5839 250° West 453 521 34,000  Level Cleveland Center
Tue 06:53:59 PM 42.6011 -79.7456 249° West 460 529 34,000  Level Cleveland Center
Tue 06:54:59 PM 42.5561 -79.9122 250° West 471 542 34,000  Level Cleveland Center
Tue 06:55:59 PM 42.5050 -80.0792 247° West 477 549 34,000  Level Cleveland Center
Tue 06:56:59 PM 42.4597 -80.2428 249° West 477 549 34,000  Level Cleveland Center
Tue 06:57:59 PM 42.4122 -80.4117 249° West 476 548 34,000  Level Cleveland Center
Tue 06:58:59 PM 42.3728 -80.5467 248° West 465 535 34,000  Level Cleveland Center
Tue 06:59:59 PM 42.3331 -80.7067 251° West 450 518 34,000  Level Cleveland Center
Tue 07:00:59 PM 42.2889 -80.8611 249° West 445 512 34,000 -200 Level Cleveland Center
Tue 07:01:59 PM 42.2322 -81.0094 243° Southwest 451 519 33,600 -950 Descending Cleveland Center
Tue 07:02:59 PM 42.1464 -81.1236 225° Southwest 444 511 32,100 -1,100 Descending Cleveland Center
Tue 07:03:59 PM 42.0789 -81.2658 237° Southwest 450 518 31,400 -1,200 Descending Cleveland Center
Tue 07:04:59 PM 42.0403 -81.4136 251° West 431 496 29,700 -1,700 Descending Cleveland Center
Tue 07:05:59 PM 42.0081 -81.5556 253° West 410 472 28,000 -2,250 Descending Cleveland Center
Tue 07:06:59 PM 41.9753 -81.6947 252° West 395 455 25,200 -3,850 Descending Cleveland Center
Tue 07:07:59 PM 41.9361 -81.8531 252° West 400 460 20,300 -4,600 Descending Cleveland Center
Tue 07:08:59 PM 41.9014 -81.9919 251° West 405 466 16,000 -4,220 Descending Cleveland Center
Tue 07:09:30 PM 41.8858 -82.0586 253° West 364 419 13,900 -3,490 Descending Cleveland Center
Tue 07:10:37 PM 41.8322 -82.1661 236° Southwest 294 338 10,300 -1,828 Descending Cleveland Center
Tue 07:11:38 PM 41.7578 -82.1169 154° Southeast 307 353 10,000 -247 Descending Cleveland Center
Tue 07:12:14 PM 41.7167 -82.0797 146° Southeast 301 346 9,900 -889 Descending Cleveland Center
Tue 07:12:59 PM 41.6675 -82.0258 141° Southeast 278 320 8,800 -1,486 Descending Cleveland Center
Tue 07:13:59 PM 41.6100 -81.9439 133° Southeast 300 345 7,300 -900 Descending Cleveland Center
Tue 07:14:59 PM 41.5567 -81.8650 132° Southeast 300 345 7,000 -400 Descending Cleveland Center
Tue 07:15:59 PM 41.5597 -81.7736 87° East 257 296 6,500 -1,000 Descending Cleveland Center
Tue 07:16:59 PM 41.5878 -81.6908 66° East 242 278 5,000 -1,299 Descending Cleveland Center
Tue 07:17:36 PM 41.5567 -81.6569 141° Southeast 208 239 4,400 -1,319 Descending Cleveland Center
Tue 07:18:30 PM 41.5147 -81.6950 214° Southwest 185 213 3,000 -887 Descending Cleveland Center
Tue 07:19:31 PM 41.4808 -81.7472 229° Southwest 186 214 2,700 -545 Descending Cleveland Center
Tue 07:20:20 PM 41.4556 -81.7856 229° Southwest 170 196 2,000 -694 Descending Cleveland Center
Tue 07:21:32 PM 41.4278 -81.8267 228° Southwest 116 133 1,300 -583 Descending Cleveland Center

Login

Don't have an account? Register now (free) for customized features, flight alerts, and more!